createdAt,value
2018-09-19T00:01:26.937Z,19.34
2018-09-19T00:03:54.242Z,19.26
2018-09-19T00:06:21.496Z,19.17
2018-09-19T00:08:48.783Z,19.10
2018-09-19T00:11:16.048Z,18.96
2018-09-19T00:13:43.397Z,18.83
2018-09-19T00:16:10.643Z,18.80
2018-09-19T00:24:17.933Z,18.73
2018-09-19T00:26:45.177Z,18.73
2018-09-19T00:29:12.446Z,18.71
2018-09-19T00:31:39.722Z,18.65
2018-09-19T00:34:06.972Z,18.58
2018-09-19T00:36:34.218Z,18.58
2018-09-19T00:39:01.454Z,18.64
2018-09-19T00:41:28.712Z,18.75
2018-09-19T00:43:55.962Z,18.88
2018-09-19T00:46:23.208Z,19.02
2018-09-19T00:48:50.501Z,19.15
2018-09-19T00:51:17.748Z,19.24
2018-09-19T00:53:45.031Z,19.25
2018-09-19T00:56:12.489Z,19.19
2018-09-19T00:58:39.764Z,19.10
2018-09-19T01:01:07.006Z,19.09
2018-09-19T01:03:34.331Z,19.08
2018-09-19T01:06:01.584Z,19.02
2018-09-19T01:08:28.865Z,18.98
2018-09-19T01:10:56.104Z,18.91
2018-09-19T01:13:23.389Z,18.85
2018-09-19T01:15:50.619Z,18.82
2018-09-19T01:18:17.894Z,18.83
2018-09-19T01:20:45.243Z,18.87
2018-09-19T01:23:12.510Z,18.87
2018-09-19T01:25:39.764Z,18.86
2018-09-19T01:28:07.185Z,18.82
2018-09-19T01:30:34.425Z,18.80
2018-09-19T01:33:01.697Z,18.71
2018-09-19T01:35:28.941Z,18.62
2018-09-19T01:37:56.286Z,18.55
2018-09-19T01:40:23.560Z,18.47
2018-09-19T01:42:56.998Z,18.44
2018-09-19T01:45:24.264Z,18.46
2018-09-19T01:47:51.491Z,18.52
2018-09-19T01:50:18.756Z,18.63
2018-09-19T01:52:45.999Z,18.71
2018-09-19T01:55:13.269Z,18.74
2018-09-19T01:57:40.739Z,18.73
2018-09-19T02:00:08.042Z,18.80
2018-09-19T02:02:35.283Z,18.85
2018-09-19T02:05:02.523Z,18.90
2018-09-19T02:07:29.765Z,18.99
2018-09-19T02:09:57.020Z,19.04
2018-09-19T02:12:24.270Z,19.08
2018-09-19T02:14:51.511Z,19.07
2018-09-19T02:17:18.757Z,19.04
2018-09-19T02:19:46.047Z,19.08
2018-09-19T02:22:13.317Z,19.15
2018-09-19T02:24:40.643Z,19.15
2018-09-19T02:27:07.920Z,19.16
2018-09-19T02:29:35.186Z,19.14
2018-09-19T02:32:02.597Z,19.10
2018-09-19T02:34:29.863Z,19.05
2018-09-19T02:36:57.121Z,19.07
2018-09-19T02:39:24.366Z,19.09
2018-09-19T02:41:51.599Z,19.10
2018-09-19T02:44:18.859Z,19.10
2018-09-19T02:46:46.104Z,19.09
2018-09-19T02:49:13.396Z,19.08
2018-09-19T02:51:40.652Z,19.03
2018-09-19T02:54:07.935Z,19.03
2018-09-19T02:56:35.216Z,19.06
2018-09-19T02:59:02.493Z,19.03
2018-09-19T03:01:29.827Z,18.97
2018-09-19T03:03:57.132Z,18.88
2018-09-19T03:06:24.382Z,18.81
2018-09-19T03:08:51.624Z,18.74
2018-09-19T03:11:18.918Z,18.70
2018-09-19T03:13:46.188Z,18.71
2018-09-19T03:16:13.477Z,18.70
2018-09-19T03:19:02.512Z,18.72
2018-09-19T03:21:31.268Z,18.64
2018-09-19T03:23:58.827Z,18.60
2018-09-19T03:26:26.131Z,18.55
2018-09-19T03:28:53.382Z,18.53
2018-09-19T03:31:20.649Z,18.50
2018-09-19T03:33:47.895Z,18.54
2018-09-19T03:36:15.163Z,18.51
2018-09-19T03:38:42.398Z,18.53
2018-09-19T03:41:09.661Z,18.55
2018-09-19T03:43:36.886Z,18.53
2018-09-19T03:46:04.220Z,18.52
2018-09-19T03:48:31.441Z,18.52
2018-09-19T03:50:58.713Z,18.55
2018-09-19T03:53:25.960Z,18.55
2018-09-19T03:55:53.262Z,18.57
2018-09-19T03:58:20.569Z,18.57
2018-09-19T04:00:47.870Z,18.58
2018-09-19T04:03:15.159Z,18.64
2018-09-19T04:05:52.866Z,18.66
2018-09-19T04:08:20.142Z,18.66
2018-09-19T04:10:48.254Z,18.62
2018-09-19T04:13:15.600Z,18.53
2018-09-19T04:15:42.842Z,18.43
2018-09-19T04:18:10.274Z,18.32
2018-09-19T04:20:37.534Z,18.20
2018-09-19T04:23:04.840Z,18.14
2018-09-19T04:25:32.152Z,18.05
2018-09-19T04:27:59.377Z,17.98
2018-09-19T04:30:26.632Z,17.93
2018-09-19T04:32:53.894Z,17.91
2018-09-19T04:35:21.239Z,17.91
2018-09-19T04:37:48.518Z,17.92
2018-09-19T04:40:15.838Z,17.90
2018-09-19T04:42:43.235Z,17.90
2018-09-19T04:45:10.626Z,17.88
2018-09-19T04:47:37.913Z,17.86
2018-09-19T04:50:05.340Z,17.84
2018-09-19T04:52:35.242Z,17.81
2018-09-19T04:55:03.700Z,17.69
2018-09-19T04:57:31.130Z,17.62
2018-09-19T04:59:58.513Z,17.51
2018-09-19T05:02:26.596Z,17.44
2018-09-19T05:04:53.951Z,17.34
2018-09-19T05:07:21.466Z,17.19
2018-09-19T05:09:48.846Z,17.12
2018-09-19T05:12:16.526Z,17.12
2018-09-19T05:14:43.797Z,17.13
2018-09-19T05:17:11.372Z,17.13
2018-09-19T05:19:38.744Z,17.08
2018-09-19T05:22:06.341Z,17.02
2018-09-19T05:24:35.273Z,16.95
2018-09-19T05:27:03.386Z,16.89
2018-09-19T05:29:30.777Z,16.88
2018-09-19T05:31:58.186Z,16.84
2018-09-19T05:34:25.544Z,16.77
2018-09-19T05:36:54.473Z,16.66
2018-09-19T05:39:22.507Z,16.57
2018-09-19T05:41:49.871Z,16.54
2018-09-19T05:44:17.251Z,16.62
2018-09-19T05:46:44.647Z,16.66
2018-09-19T05:49:12.078Z,16.62
2018-09-19T05:51:39.387Z,16.58
2018-09-19T05:54:06.784Z,16.53
2018-09-19T05:56:34.252Z,16.53
2018-09-19T05:59:01.493Z,16.48
2018-09-19T06:01:29.246Z,16.41
2018-09-19T06:03:56.610Z,16.32
2018-09-19T06:06:23.952Z,16.23
2018-09-19T06:08:51.376Z,16.20
2018-09-19T06:11:18.781Z,16.20
2018-09-19T06:13:46.460Z,16.23
2018-09-19T06:16:13.844Z,16.34
2018-09-19T06:18:41.229Z,16.52
2018-09-19T06:21:08.519Z,16.69
2018-09-19T06:23:35.839Z,16.87
2018-09-19T06:26:03.212Z,17.09
2018-09-19T06:28:30.500Z,17.33
2018-09-19T06:30:57.816Z,17.64
2018-09-19T06:33:25.188Z,17.96
2018-09-19T06:35:52.451Z,18.31
2018-09-19T06:38:20.385Z,18.61
2018-09-19T06:40:47.936Z,18.84
2018-09-19T06:43:16.422Z,19.12
2018-09-19T06:45:44.702Z,19.43
2018-09-19T06:48:13.069Z,19.75
2018-09-19T06:50:40.783Z,20.03
2018-09-19T06:53:09.319Z,20.32
2018-09-19T06:55:37.420Z,20.63
2018-09-19T06:58:05.952Z,20.99
2018-09-19T07:00:33.612Z,21.26
2018-09-19T07:03:00.945Z,21.58
2018-09-19T07:05:28.281Z,21.86
2018-09-19T07:07:55.623Z,22.15
2018-09-19T07:10:22.909Z,22.38
2018-09-19T07:12:50.308Z,22.70
2018-09-19T07:15:17.922Z,23.09
2018-09-19T07:17:45.312Z,23.46
2018-09-19T07:20:12.635Z,23.74
2018-09-19T07:22:40.017Z,24.00
2018-09-19T07:25:07.550Z,24.27
2018-09-19T07:27:34.887Z,24.49
2018-09-19T07:30:02.264Z,24.71
2018-09-19T07:32:29.602Z,25.01
2018-09-19T07:34:56.956Z,25.20
2018-09-19T07:37:24.280Z,25.24
2018-09-19T07:39:51.593Z,25.47
2018-09-19T07:42:18.954Z,25.65
2018-09-19T07:44:46.300Z,25.83
2018-09-19T07:47:13.630Z,25.98
2018-09-19T07:49:40.978Z,26.11
2018-09-19T07:52:08.280Z,26.26
2018-09-19T07:54:35.749Z,26.43
2018-09-19T07:57:03.090Z,26.49
2018-09-19T07:59:30.649Z,26.76
2018-09-19T08:01:58.197Z,26.79
2018-09-19T08:04:25.600Z,27.03
2018-09-19T08:06:52.936Z,26.93
2018-09-19T08:09:20.449Z,26.90
2018-09-19T08:11:47.837Z,27.10
2018-09-19T08:14:15.228Z,27.15
2018-09-19T08:16:42.706Z,27.37
2018-09-19T08:19:10.904Z,27.89
2018-09-19T08:21:38.216Z,27.97
2018-09-19T08:24:05.520Z,28.14
2018-09-19T08:26:32.948Z,28.28
2018-09-19T08:29:00.512Z,28.65
2018-09-19T08:31:27.945Z,28.67
2018-09-19T08:33:55.339Z,28.69
2018-09-19T08:36:22.674Z,28.64
2018-09-19T08:38:50.011Z,28.63
2018-09-19T08:41:17.323Z,28.79
2018-09-19T08:43:44.723Z,28.32
2018-09-19T08:46:12.386Z,28.55
2018-09-19T08:48:39.778Z,28.71
2018-09-19T08:51:07.139Z,28.79
2018-09-19T08:53:34.501Z,29.00
2018-09-19T08:56:01.782Z,29.45
2018-09-19T08:58:29.308Z,29.26
2018-09-19T09:00:56.824Z,28.90
2018-09-19T09:03:24.147Z,28.96
2018-09-19T09:05:51.575Z,29.36
2018-09-19T09:08:18.861Z,29.53
2018-09-19T09:10:46.335Z,29.08
2018-09-19T09:13:13.815Z,29.20
2018-09-19T09:15:41.289Z,29.22
2018-09-19T09:18:08.727Z,29.30
2018-09-19T09:20:36.103Z,29.74
2018-09-19T09:23:03.619Z,30.13
2018-09-19T09:25:31.000Z,29.90
2018-09-19T09:27:58.494Z,29.58
2018-09-19T09:30:25.962Z,29.78
2018-09-19T09:32:53.316Z,29.94
2018-09-19T09:35:20.691Z,29.90
2018-09-19T09:37:48.912Z,30.27
2018-09-19T09:40:16.354Z,30.12
2018-09-19T09:42:43.631Z,30.06
2018-09-19T09:45:12.015Z,30.54
2018-09-19T09:47:39.824Z,30.51
2018-09-19T09:50:07.639Z,30.67
2018-09-19T09:52:34.928Z,30.89
2018-09-19T09:55:02.369Z,30.96
2018-09-19T09:57:29.678Z,30.82
2018-09-19T09:59:57.015Z,30.68
2018-09-19T10:02:24.964Z,30.42
2018-09-19T10:04:52.325Z,30.73
2018-09-19T10:07:19.632Z,30.66
2018-09-19T10:09:46.968Z,30.56
2018-09-19T10:12:15.260Z,30.62
2018-09-19T10:14:42.779Z,30.94
2018-09-19T10:17:10.083Z,30.95
2018-09-19T10:19:37.486Z,31.30
2018-09-19T10:22:04.885Z,31.42
2018-09-19T10:24:32.265Z,30.93
2018-09-19T10:27:00.131Z,30.73
2018-09-19T10:29:27.587Z,31.41
2018-09-19T10:31:54.894Z,31.61
2018-09-19T10:34:22.299Z,31.40
2018-09-19T10:36:50.116Z,31.22
2018-09-19T10:39:17.475Z,31.38
2018-09-19T10:41:44.785Z,31.28
2018-09-19T10:44:12.136Z,31.59
2018-09-19T10:46:39.514Z,31.48
2018-09-19T10:49:06.983Z,31.36
2018-09-19T10:51:34.277Z,31.57
2018-09-19T10:54:01.722Z,31.47
2018-09-19T10:56:29.700Z,31.65
2018-09-19T10:58:57.256Z,32.03
2018-09-19T11:01:25.611Z,32.29
2018-09-19T11:03:53.080Z,31.99
2018-09-19T11:06:20.448Z,32.41
2018-09-19T11:08:47.767Z,32.61
2018-09-19T11:11:15.260Z,32.35
2018-09-19T11:13:42.812Z,31.98
2018-09-19T11:16:10.267Z,31.98
2018-09-19T11:18:37.593Z,32.28
2018-09-19T11:23:39.169Z,32.31
2018-09-19T11:26:07.548Z,32.34
2018-09-19T11:28:36.119Z,32.18
2018-09-19T11:31:03.572Z,32.34
2018-09-19T11:33:31.044Z,32.40
2018-09-19T11:35:58.417Z,32.30
2018-09-19T11:38:34.905Z,31.98
2018-09-19T11:41:02.636Z,31.94
2018-09-19T11:43:30.759Z,32.16
2018-09-19T11:46:03.414Z,31.83
2018-09-19T11:48:30.741Z,31.79
2018-09-19T11:50:58.204Z,32.14
2018-09-19T11:53:27.635Z,31.83
2018-09-19T11:55:55.772Z,31.79
2018-09-19T11:58:23.117Z,31.83
2018-09-19T12:00:50.727Z,31.81
2018-09-19T12:03:18.089Z,31.55
2018-09-19T12:05:45.415Z,31.59
2018-09-19T12:08:12.845Z,31.67
2018-09-19T12:10:41.941Z,31.42
2018-09-19T12:13:09.258Z,31.69
2018-09-19T12:15:36.740Z,31.95
2018-09-19T12:18:04.199Z,32.04
2018-09-19T12:20:31.899Z,31.80
2018-09-19T12:22:59.274Z,31.85
2018-09-19T12:25:27.235Z,31.80
2018-09-19T12:27:54.652Z,31.51
2018-09-19T12:30:23.215Z,31.59
2018-09-19T12:32:50.555Z,31.69
2018-09-19T12:35:18.537Z,31.87
2018-09-19T12:37:46.106Z,31.38
2018-09-19T12:40:13.674Z,31.31
2018-09-19T12:42:41.078Z,31.19
2018-09-19T12:45:08.757Z,31.08
2018-09-19T12:47:36.228Z,31.14
2018-09-19T12:50:03.723Z,31.41
2018-09-19T12:52:31.195Z,31.40
2018-09-19T12:54:58.575Z,31.31
2018-09-19T12:57:25.924Z,31.19
2018-09-19T12:59:53.306Z,31.04
2018-09-19T13:02:20.700Z,31.18
2018-09-19T13:04:48.042Z,31.36
2018-09-19T13:07:16.216Z,31.17
2018-09-19T13:09:43.581Z,30.98
2018-09-19T13:12:10.991Z,31.03
2018-09-19T13:14:38.323Z,30.92
2018-09-19T13:17:05.711Z,31.12
2018-09-19T13:19:33.109Z,31.25
2018-09-19T13:22:00.491Z,31.37
2018-09-19T13:24:27.885Z,31.33
2018-09-19T13:26:55.281Z,31.30
2018-09-19T13:29:23.189Z,31.15
2018-09-19T13:31:50.614Z,30.96
2018-09-19T13:34:18.000Z,30.65
2018-09-19T13:36:45.415Z,30.59
2018-09-19T13:39:13.319Z,30.78
2018-09-19T13:41:42.269Z,30.75
2018-09-19T13:44:09.946Z,30.79
2018-09-19T13:46:37.952Z,30.67
2018-09-19T13:49:10.054Z,30.54
2018-09-19T13:51:38.135Z,30.41
2018-09-19T13:54:05.627Z,30.37
2018-09-19T13:56:33.745Z,30.42
2018-09-19T13:59:01.200Z,30.28
2018-09-19T14:01:28.657Z,30.15
2018-09-19T14:03:56.129Z,30.08
2018-09-19T14:06:23.617Z,30.07
2018-09-19T14:08:52.047Z,30.07
2018-09-19T14:11:19.380Z,29.90
2018-09-19T14:13:46.784Z,29.77
2018-09-19T14:16:14.181Z,29.91
2018-09-19T14:18:42.094Z,29.96
2018-09-19T14:21:09.907Z,29.88
2018-09-19T14:23:37.427Z,29.92
2018-09-19T14:26:04.855Z,29.78
2018-09-19T14:28:32.287Z,29.73
2018-09-19T14:31:00.701Z,29.75
2018-09-19T14:33:28.980Z,29.55
2018-09-19T14:35:57.188Z,29.47
2018-09-19T14:38:27.651Z,29.48
2018-09-19T14:40:55.568Z,29.45
2018-09-19T14:43:23.079Z,29.29
2018-09-19T14:45:50.452Z,29.31
2018-09-19T14:48:17.977Z,29.18
2018-09-19T14:50:46.921Z,29.11
2018-09-19T14:53:15.151Z,29.16
2018-09-19T14:55:43.249Z,29.18
2018-09-19T14:58:10.668Z,29.10
2018-09-19T15:00:37.977Z,29.14
2018-09-19T15:03:05.711Z,29.07
2018-09-19T15:05:33.071Z,29.00
2018-09-19T15:08:00.512Z,28.90
2018-09-19T15:10:29.907Z,28.84
2018-09-19T15:12:57.354Z,28.74
2018-09-19T15:15:24.809Z,28.79
2018-09-19T15:17:52.306Z,28.75
2018-09-19T15:20:19.657Z,28.78
2018-09-19T15:22:47.106Z,28.65
2018-09-19T15:25:14.579Z,28.59
2018-09-19T15:27:42.512Z,28.52
2018-09-19T15:30:09.886Z,28.44
2018-09-19T15:32:37.420Z,28.38
2018-09-19T15:35:05.728Z,28.36
2018-09-19T15:37:33.899Z,28.27
2018-09-19T15:40:01.324Z,28.24
2018-09-19T15:42:28.808Z,28.22
2018-09-19T15:44:56.167Z,28.18
2018-09-19T15:47:23.727Z,28.18
2018-09-19T15:49:51.240Z,28.10
2018-09-19T15:52:19.330Z,28.06
2018-09-19T15:54:46.825Z,28.01
2018-09-19T15:57:14.472Z,28.01
2018-09-19T15:59:42.734Z,27.97
2018-09-19T16:02:10.139Z,27.93
2018-09-19T16:04:37.619Z,27.88
2018-09-19T16:07:05.056Z,27.82
2018-09-19T16:09:33.101Z,27.77
2018-09-19T16:12:00.457Z,27.75
2018-09-19T16:14:27.917Z,27.67
2018-09-19T16:16:55.273Z,27.65
2018-09-19T16:19:22.723Z,27.64
2018-09-19T16:21:50.088Z,27.62
2018-09-19T16:24:17.443Z,27.55
2018-09-19T16:26:44.801Z,27.44
2018-09-19T16:29:12.251Z,27.39
2018-09-19T16:31:39.588Z,27.29
2018-09-19T16:34:07.201Z,27.22
2018-09-19T16:36:34.602Z,27.12
2018-09-19T16:39:02.246Z,26.98
2018-09-19T16:41:30.177Z,26.96
2018-09-19T16:44:04.309Z,26.91
2018-09-19T16:46:31.641Z,26.90
2018-09-19T16:49:10.932Z,26.85
2018-09-19T16:51:38.451Z,26.79
2018-09-19T16:54:05.859Z,26.68
2018-09-19T16:56:33.300Z,26.59
2018-09-19T16:59:00.792Z,26.48
2018-09-19T17:01:28.739Z,26.36
2018-09-19T17:03:56.367Z,26.24
2018-09-19T17:06:23.898Z,26.11
2018-09-19T17:08:51.260Z,25.96
2018-09-19T17:11:23.440Z,25.84
2018-09-19T17:13:55.396Z,25.71
2018-09-19T17:16:28.598Z,25.61
2018-09-19T17:19:02.522Z,25.55
2018-09-19T17:21:35.989Z,25.41
2018-09-19T17:24:09.456Z,25.30
2018-09-19T17:26:42.444Z,25.16
2018-09-19T17:29:15.796Z,25.09
2018-09-19T17:31:47.717Z,25.01
2018-09-19T17:34:19.447Z,24.89
2018-09-19T17:36:51.794Z,24.85
2018-09-19T17:39:23.432Z,24.74
2018-09-19T17:41:55.159Z,24.67
2018-09-19T17:44:24.689Z,24.63
2018-09-19T17:46:53.408Z,24.63
2018-09-19T17:49:21.928Z,24.63
2018-09-19T17:51:50.612Z,24.58
2018-09-19T17:54:19.105Z,24.52
2018-09-19T17:56:47.161Z,24.51
2018-09-19T17:59:15.113Z,24.53
2018-09-19T18:01:42.947Z,24.56
2018-09-19T18:04:10.912Z,24.55
2018-09-19T18:06:38.913Z,24.51
2018-09-19T18:09:07.560Z,24.44
2018-09-19T18:11:36.334Z,24.42
2018-09-19T18:14:04.515Z,24.39
2018-09-19T18:16:32.262Z,24.35
2018-09-19T18:19:00.382Z,24.33
2018-09-19T18:21:28.443Z,24.26
2018-09-19T18:23:56.293Z,24.22
2018-09-19T18:26:24.264Z,24.15
2018-09-19T18:28:52.799Z,24.11
2018-09-19T18:31:21.182Z,24.05
2018-09-19T18:33:49.670Z,23.98
2018-09-19T18:36:17.867Z,23.95
2018-09-19T18:38:45.612Z,23.87
2018-09-19T18:41:13.571Z,23.79
2018-09-19T18:43:41.392Z,23.75
2018-09-19T18:46:09.528Z,23.67
2018-09-19T18:48:37.386Z,23.63
2018-09-19T18:51:06.217Z,23.59
2018-09-19T18:53:34.170Z,23.55
2018-09-19T18:56:02.140Z,23.50
2018-09-19T18:58:30.033Z,23.42
2018-09-19T19:00:58.496Z,23.36
2018-09-19T19:03:26.454Z,23.32
2018-09-19T19:05:55.352Z,23.27
2018-09-19T19:08:23.586Z,23.19
2018-09-19T19:10:51.445Z,23.11
2018-09-19T19:13:20.171Z,23.10
2018-09-19T19:15:48.344Z,23.15
2018-09-19T19:18:16.503Z,23.14
2018-09-19T19:20:45.302Z,23.11
2018-09-19T19:23:13.140Z,23.05
2018-09-19T19:25:42.687Z,22.98
2018-09-19T19:28:10.819Z,22.90
2018-09-19T19:30:39.206Z,22.82
2018-09-19T19:33:07.298Z,22.74
2018-09-19T19:35:35.633Z,22.73
2018-09-19T19:38:04.690Z,22.68
2018-09-19T19:40:32.566Z,22.60
2018-09-19T19:43:00.720Z,22.53
2018-09-19T19:45:29.176Z,22.51
2018-09-19T19:47:57.083Z,22.45
2018-09-19T19:50:25.102Z,22.38
2018-09-19T19:52:53.554Z,22.33
2018-09-19T19:55:21.316Z,22.30
2018-09-19T19:57:49.893Z,22.29
2018-09-19T20:00:18.057Z,22.23
2018-09-19T20:02:45.797Z,22.17
2018-09-19T20:05:14.648Z,22.19
2018-09-19T20:07:43.172Z,22.21
2018-09-19T20:10:11.408Z,22.23
2018-09-19T20:12:39.244Z,22.20
2018-09-19T20:15:07.163Z,22.27
2018-09-19T20:17:35.248Z,22.28
2018-09-19T20:20:03.131Z,22.27
2018-09-19T20:22:31.069Z,22.20
2018-09-19T20:24:59.149Z,22.16
2018-09-19T20:27:26.883Z,22.10
2018-09-19T20:29:55.607Z,22.04
2018-09-19T20:32:23.847Z,21.99
2018-09-19T20:34:51.978Z,21.99
2018-09-19T20:37:19.897Z,21.96
2018-09-19T20:39:47.480Z,21.95
2018-09-19T20:42:15.917Z,21.92
2018-09-19T20:44:44.029Z,21.87
2018-09-19T20:47:12.075Z,21.87
2018-09-19T20:49:40.766Z,21.85
2018-09-19T20:52:08.725Z,21.81
2018-09-19T20:54:37.111Z,21.80
2018-09-19T20:57:05.233Z,21.78
2018-09-19T20:59:33.493Z,21.74
2018-09-19T21:02:01.672Z,21.69
2018-09-19T21:04:29.481Z,21.66
2018-09-19T21:06:57.182Z,21.63
2018-09-19T21:09:24.977Z,21.64
2018-09-19T21:11:52.897Z,21.65
2018-09-19T21:14:21.178Z,21.64
2018-09-19T21:16:48.499Z,21.63
2018-09-19T21:19:15.771Z,21.63
2018-09-19T21:21:43.230Z,21.59
2018-09-19T21:24:10.471Z,21.58
2018-09-19T21:26:38.308Z,21.58
2018-09-19T21:29:05.645Z,21.54
2018-09-19T21:31:33.171Z,21.55
2018-09-19T21:34:00.456Z,21.54
2018-09-19T21:36:27.712Z,21.58
2018-09-19T21:38:54.955Z,21.62
2018-09-19T21:41:22.367Z,21.61
2018-09-19T21:43:49.631Z,21.63
2018-09-19T21:46:16.932Z,21.59
2018-09-19T21:48:44.179Z,21.62
2018-09-19T21:51:11.464Z,21.68
2018-09-19T21:53:38.678Z,21.70
2018-09-19T21:56:06.030Z,21.69
2018-09-19T21:58:33.268Z,21.63
2018-09-19T22:01:06.480Z,21.62
2018-09-19T22:03:34.203Z,21.66
2018-09-19T22:06:01.480Z,21.68
2018-09-19T22:08:29.258Z,21.61
2018-09-19T22:10:56.532Z,21.54
2018-09-19T22:13:23.768Z,21.48
2018-09-19T22:15:51.038Z,21.46
2018-09-19T22:18:18.290Z,21.44
2018-09-19T22:20:45.508Z,21.41
2018-09-19T22:23:13.227Z,21.31
2018-09-19T22:25:40.546Z,21.30
2018-09-19T22:28:07.792Z,21.30
2018-09-19T22:30:35.036Z,21.25
2018-09-19T22:33:02.305Z,21.26
2018-09-19T22:35:29.552Z,21.23
2018-09-19T22:37:56.805Z,21.18
2018-09-19T22:40:24.035Z,21.12
2018-09-19T22:42:51.306Z,21.09
2018-09-19T22:45:19.156Z,21.04
2018-09-19T22:47:47.412Z,21.04
2018-09-19T22:50:14.707Z,21.01
2018-09-19T22:52:41.992Z,20.95
2018-09-19T22:55:09.224Z,20.88
2018-09-19T22:57:36.570Z,20.85
2018-09-19T23:00:04.000Z,20.77
2018-09-19T23:02:31.259Z,20.73
2018-09-19T23:04:58.524Z,20.70
2018-09-19T23:07:25.912Z,20.68
2018-09-19T23:09:53.446Z,20.67
2018-09-19T23:12:20.761Z,20.61
2018-09-19T23:14:48.019Z,20.56
2018-09-19T23:17:15.286Z,20.53
2018-09-19T23:19:42.542Z,20.48
2018-09-19T23:22:09.825Z,20.45
2018-09-19T23:24:37.475Z,20.46
2018-09-19T23:27:04.776Z,20.49
2018-09-19T23:29:32.059Z,20.48
2018-09-19T23:31:59.523Z,20.45
2018-09-19T23:34:26.767Z,20.39
2018-09-19T23:36:54.064Z,20.34
2018-09-19T23:39:21.313Z,20.27
2018-09-19T23:41:48.633Z,20.21
2018-09-19T23:44:15.864Z,20.16
2018-09-19T23:46:43.772Z,20.14
2018-09-19T23:49:11.040Z,20.08
2018-09-19T23:51:38.306Z,20.03
2018-09-19T23:54:05.892Z,20.02
2018-09-19T23:56:33.115Z,20.02
2018-09-19T23:59:00.373Z,20.00
